Time;durP1;ratioP1;P1;durP2;ratioP2;P2;SDS_P1;SDS_P2;PMS_P1;PMS_P2;Temp;Humidity;BMP_temperature;BMP_pressure;BME280_temperature;BME280_humidity;BME280_pressure;Samples;Min_cycle;Max_cycle;Signal;HPM_P1;HPM_P2
2022/10/12 00:00:15;;;;;;;19.05;8.48;;;;;;;7.87;100.00;102142.72;5010638;28;20064;-76
2022/10/12 00:02:42;;;;;;;21.10;8.77;;;;;;;7.85;100.00;102150.53;5006310;28;20056;-76
2022/10/12 00:05:09;;;;;;;17.88;8.57;;;;;;;7.78;100.00;102146.75;5009777;28;20053;-77
2022/10/12 00:07:35;;;;;;;19.95;8.30;;;;;;;7.76;100.00;102140.75;4990848;28;20453;-77
2022/10/12 00:10:03;;;;;;;23.67;8.30;;;;;;;7.68;100.00;102136.16;5002960;28;20046;-74
2022/10/12 00:12:29;;;;;;;25.30;8.40;;;;;;;7.71;100.00;102147.31;5009579;28;20054;-76
2022/10/12 00:14:56;;;;;;;17.92;7.55;;;;;;;7.66;100.00;102131.00;5013772;28;20060;-77
2022/10/12 00:17:22;;;;;;;22.75;9.25;;;;;;;7.68;100.00;102144.44;5010817;28;20129;-77
2022/10/12 00:19:49;;;;;;;25.38;8.40;;;;;;;7.71;100.00;102139.06;5013761;28;20053;-74
2022/10/12 00:22:16;;;;;;;18.27;8.05;;;;;;;7.73;100.00;102139.50;5010325;28;20809;-77
2022/10/12 00:24:42;;;;;;;20.75;8.55;;;;;;;7.73;100.00;102138.72;5009201;28;20580;-75
2022/10/12 00:27:09;;;;;;;18.15;7.50;;;;;;;7.68;100.00;102130.66;5008953;28;20053;-75
2022/10/12 00:29:35;;;;;;;17.92;7.15;;;;;;;7.68;100.00;102138.94;4990051;28;20052;-75
2022/10/12 00:32:01;;;;;;;21.60;7.25;;;;;;;7.70;100.00;102142.16;5022211;28;20060;-75
2022/10/12 00:34:28;;;;;;;22.27;8.80;;;;;;;7.66;100.00;102138.44;5011451;28;20115;-75
2022/10/12 00:36:55;;;;;;;21.35;7.85;;;;;;;7.59;100.00;102140.97;4992688;28;20049;-74
2022/10/12 00:39:21;;;;;;;18.73;8.00;;;;;;;7.56;100.00;102147.19;5009787;28;20052;-74
2022/10/12 00:41:48;;;;;;;22.35;8.20;;;;;;;7.51;100.00;102147.41;4994810;28;20052;-76
2022/10/12 00:44:39;;;;;;;23.92;8.48;;;;;;;7.51;100.00;102148.22;5013174;28;20062;-76
2022/10/12 00:47:21;;;;;;;18.73;7.88;;;;;;;7.56;100.00;102141.69;5015140;28;20068;-75
2022/10/12 00:49:55;;;;;;;20.85;8.77;;;;;;;7.53;100.00;102136.84;4983791;28;20050;-75
2022/10/12 00:52:27;;;;;;;17.35;8.18;;;;;;;7.54;100.00;102142.03;5010886;28;20053;-74
2022/10/12 00:54:54;;;;;;;19.50;7.47;;;;;;;7.47;100.00;102129.97;5014059;28;20049;-76
2022/10/12 00:57:22;;;;;;;15.70;7.80;;;;;;;7.52;100.00;102140.75;5000440;28;20049;-75
2022/10/12 00:59:53;;;;;;;28.85;10.68;;;;;;;7.50;100.00;102145.81;5008986;28;20053;-75
2022/10/12 01:02:23;;;;;;;23.58;8.32;;;;;;;7.44;100.00;102149.91;5008961;28;20068;-78
2022/10/12 01:04:49;;;;;;;17.58;8.38;;;;;;;7.41;100.00;102134.88;5008067;28;20053;-75
2022/10/12 01:07:16;;;;;;;20.60;8.70;;;;;;;7.39;100.00;102148.19;5006461;28;20053;-75
2022/10/12 01:09:42;;;;;;;22.90;9.40;;;;;;;7.35;100.00;102154.72;5007797;28;20052;-75
2022/10/12 01:12:10;;;;;;;22.83;8.45;;;;;;;7.31;100.00;102145.53;4991429;28;20053;-77
2022/10/12 01:14:36;;;;;;;19.23;8.20;;;;;;;7.26;100.00;102141.03;5008978;28;20747;-77
2022/10/12 01:17:47;;;;;;;24.40;8.40;;;;;;;7.22;100.00;102139.31;4991708;28;20158;-78
2022/10/12 01:20:41;;;;;;;17.58;8.80;;;;;;;7.22;100.00;102142.06;5010444;28;20050;-76
2022/10/12 01:23:17;;;;;;;22.38;8.88;;;;;;;7.24;100.00;102142.53;5008955;28;20064;-75
2022/10/12 01:26:02;;;;;;;18.67;8.82;;;;;;;7.22;100.00;102140.13;4989781;28;20050;-75
2022/10/12 01:29:01;;;;;;;21.15;9.30;;;;;;;7.20;100.00;102138.84;5003437;28;20119;-75
2022/10/12 01:32:02;;;;;;;22.65;9.15;;;;;;;7.18;100.00;102147.44;4965811;28;20057;-75
2022/10/12 01:34:39;;;;;;;21.80;8.65;;;;;;;7.18;100.00;102146.63;5005863;28;20517;-75
2022/10/12 01:37:20;;;;;;;23.20;9.43;;;;;;;7.18;100.00;102136.44;5005175;28;20876;-75
2022/10/12 01:39:53;;;;;;;21.33;8.75;;;;;;;7.19;100.00;102137.25;5020002;28;20041;-75
2022/10/12 01:42:25;;;;;;;18.95;8.18;;;;;;;7.13;100.00;102136.63;4989574;28;20057;-77
2022/10/12 01:45:07;;;;;;;22.02;9.25;;;;;;;7.12;100.00;102135.03;5003814;28;20053;-77
2022/10/12 01:47:36;;;;;;;20.42;9.05;;;;;;;7.10;100.00;102123.59;4983651;28;20072;-77
2022/10/12 01:50:07;;;;;;;22.60;9.13;;;;;;;7.09;100.00;102130.22;5018710;28;20053;-77
2022/10/12 01:52:50;;;;;;;22.10;9.00;;;;;;;7.00;100.00;102118.50;5028778;28;20057;-76
2022/10/12 01:55:37;;;;;;;24.00;9.07;;;;;;;7.05;100.00;102128.47;5030974;28;20576;-77
2022/10/12 01:58:10;;;;;;;21.20;8.57;;;;;;;7.04;100.00;102118.63;5011480;28;20056;-78
2022/10/12 02:00:50;;;;;;;19.58;8.77;;;;;;;7.04;100.00;102121.38;4999177;28;20045;-75
2022/10/12 02:03:43;;;;;;;22.40;9.63;;;;;;;7.01;100.00;102116.53;5021916;28;20156;-77
2022/10/12 02:06:17;;;;;;;24.75;10.38;;;;;;;6.96;100.00;102111.25;5012739;28;20108;-75
2022/10/12 02:08:51;;;;;;;23.63;9.88;;;;;;;7.01;100.00;102119.28;5023675;28;20502;-74
2022/10/12 02:11:20;;;;;;;24.05;10.40;;;;;;;7.01;100.00;102116.53;5018144;28;20421;-76
2022/10/12 02:13:52;;;;;;;22.08;9.05;;;;;;;7.00;100.00;102114.94;5020449;28;20077;-76
2022/10/12 02:16:23;;;;;;;24.50;10.25;;;;;;;6.95;100.00;102112.41;5021282;28;20053;-75
2022/10/12 02:18:53;;;;;;;21.23;9.13;;;;;;;6.90;100.00;102115.38;5020217;28;20050;-76
2022/10/12 02:21:26;;;;;;;25.00;8.98;;;;;;;6.92;100.00;102115.84;5025717;28;20123;-76
2022/10/12 02:23:55;;;;;;;18.55;9.13;;;;;;;6.89;100.00;102111.78;5014235;28;20139;-77
2022/10/12 02:26:22;;;;;;;26.25;9.30;;;;;;;6.93;100.00;102111.94;5022787;28;20065;-76
2022/10/12 02:28:49;;;;;;;20.92;9.90;;;;;;;6.90;100.00;102110.69;5036437;28;20805;-77
2022/10/12 02:31:34;;;;;;;26.05;10.20;;;;;;;6.88;100.00;102099.19;5030658;28;20536;-77
2022/10/12 02:34:09;;;;;;;20.67;9.27;;;;;;;6.93;100.00;102101.75;5028407;28;20053;-74
2022/10/12 02:37:10;;;;;;;25.30;9.15;;;;;;;6.93;100.00;102087.16;5031502;28;20064;-74
2022/10/12 02:40:14;;;;;;;25.27;10.48;;;;;;;6.94;100.00;102086.03;4986144;28;20053;-77
2022/10/12 02:42:48;;;;;;;23.67;9.35;;;;;;;6.93;100.00;102085.25;5011790;28;20064;-75
2022/10/12 02:45:37;;;;;;;23.38;9.75;;;;;;;6.93;100.00;102082.47;5023628;28;20076;-74
2022/10/12 02:48:05;;;;;;;24.08;10.15;;;;;;;6.88;100.00;102082.69;5004463;28;20057;-77
2022/10/12 02:50:32;;;;;;;26.52;10.65;;;;;;;6.86;100.00;102076.72;5030751;28;20048;-76
2022/10/12 02:52:58;;;;;;;21.48;10.00;;;;;;;6.85;100.00;102077.06;5017950;28;20049;-75
2022/10/12 02:55:25;;;;;;;22.50;9.52;;;;;;;6.84;100.00;102072.69;5014199;28;20065;-74
2022/10/12 02:57:51;;;;;;;22.63;10.35;;;;;;;6.76;100.00;102068.91;5024336;28;20053;-75
2022/10/12 03:00:18;;;;;;;25.05;9.93;;;;;;;6.79;100.00;102072.91;5018474;28;20057;-75
2022/10/12 03:02:44;;;;;;;22.30;9.38;;;;;;;6.77;100.00;102069.69;5005747;28;20099;-75
2022/10/12 03:05:10;;;;;;;21.63;9.75;;;;;;;6.80;100.00;102064.31;5023699;28;20053;-75
2022/10/12 03:07:37;;;;;;;17.98;9.20;;;;;;;6.79;100.00;102053.66;5023395;28;20476;-75
2022/10/12 03:10:04;;;;;;;22.08;9.20;;;;;;;6.78;100.00;102057.56;5027443;28;20045;-75
2022/10/12 03:12:30;;;;;;;19.23;9.10;;;;;;;6.78;100.00;102065.81;5021782;28;20054;-75
2022/10/12 03:14:57;;;;;;;22.42;10.00;;;;;;;6.74;100.00;102070.38;5033313;28;20057;-75
2022/10/12 03:17:23;;;;;;;23.88;10.77;;;;;;;6.72;100.00;102069.91;5021565;28;20053;-75
2022/10/12 03:19:50;;;;;;;23.20;10.13;;;;;;;6.69;100.00;102073.34;5017128;28;20054;-76
2022/10/12 03:22:16;;;;;;;22.00;9.98;;;;;;;6.65;100.00;102070.44;4999102;28;20053;-74
2022/10/12 03:24:43;;;;;;;25.38;10.75;;;;;;;6.66;100.00;102068.50;5028262;28;20072;-75
2022/10/12 03:27:09;;;;;;;25.17;9.68;;;;;;;6.63;100.00;102063.69;5015600;28;20342;-77
2022/10/12 03:29:35;;;;;;;20.65;10.10;;;;;;;6.60;100.00;102056.91;5037065;28;20421;-76
2022/10/12 03:32:02;;;;;;;20.92;9.35;;;;;;;6.61;100.00;102058.53;5022713;28;20042;-77
2022/10/12 03:34:28;;;;;;;24.70;9.40;;;;;;;6.65;100.00;102061.41;5016508;28;20045;-75
2022/10/12 03:36:55;;;;;;;27.90;10.50;;;;;;;6.66;100.00;102055.56;5027708;28;20049;-76
2022/10/12 03:39:21;;;;;;;26.25;10.75;;;;;;;6.66;100.00;102057.50;5028905;28;20068;-76
2022/10/12 03:41:48;;;;;;;20.23;9.77;;;;;;;6.60;100.00;102054.16;5029515;28;20096;-76
2022/10/12 03:44:14;;;;;;;22.83;9.50;;;;;;;6.60;100.00;102064.34;5036426;28;20061;-76
2022/10/12 03:46:40;;;;;;;20.90;8.63;;;;;;;6.56;100.00;102060.69;5020124;28;20053;-76
2022/10/12 03:49:07;;;;;;;25.67;10.25;;;;;;;6.55;100.00;102061.84;5027410;28;20201;-76
2022/10/12 03:51:34;;;;;;;24.75;9.70;;;;;;;6.53;100.00;102058.59;5020382;28;20045;-75
2022/10/12 03:54:00;;;;;;;24.45;10.15;;;;;;;6.49;100.00;102054.94;5031304;28;20510;-77
2022/10/12 03:56:26;;;;;;;23.45;10.50;;;;;;;6.51;100.00;102053.44;5029214;28;20046;-74
2022/10/12 03:58:53;;;;;;;24.08;10.18;;;;;;;6.50;100.00;102065.59;5029610;28;20046;-75
2022/10/12 04:01:20;;;;;;;22.70;10.23;;;;;;;6.46;100.00;102050.91;5024691;28;20514;-77
2022/10/12 04:03:46;;;;;;;22.92;9.63;;;;;;;6.45;100.00;102040.25;5018800;28;20133;-76
2022/10/12 04:06:12;;;;;;;33.15;17.67;;;;;;;6.50;100.00;102045.53;5029015;28;20049;-76
2022/10/12 04:08:40;;;;;;;32.67;14.32;;;;;;;6.49;100.00;102050.25;5028955;28;20053;-77
2022/10/12 04:11:07;;;;;;;27.10;13.15;;;;;;;6.53;100.00;102047.59;5022339;28;20041;-77
2022/10/12 04:13:34;;;;;;;27.17;14.43;;;;;;;6.53;100.00;102045.66;5020784;28;20078;-76
2022/10/12 04:16:05;;;;;;;25.17;11.50;;;;;;;6.52;100.00;102040.50;5021795;28;20038;-76
2022/10/12 04:18:33;;;;;;;22.95;11.52;;;;;;;6.50;100.00;102038.09;5023095;28;20049;-77
2022/10/12 04:21:00;;;;;;;24.08;11.32;;;;;;;6.54;100.00;102049.19;5020401;28;20046;-76
2022/10/12 04:23:27;;;;;;;27.08;16.15;;;;;;;6.59;100.00;102041.56;5016756;28;20049;-75
2022/10/12 04:25:53;;;;;;;27.00;13.77;;;;;;;6.55;100.00;102039.84;5007731;28;20498;-74
2022/10/12 04:28:20;;;;;;;26.27;10.55;;;;;;;6.56;100.00;102042.25;5025084;28;20061;-76
2022/10/12 04:30:46;;;;;;;22.88;10.95;;;;;;;6.59;100.00;102033.31;5026059;28;20041;-75
2022/10/12 04:33:13;;;;;;;19.75;9.95;;;;;;;6.53;100.00;102033.84;5013802;28;20065;-75
2022/10/12 04:35:39;;;;;;;22.67;10.88;;;;;;;6.58;100.00;102037.19;5040380;28;20050;-75
2022/10/12 04:38:06;;;;;;;23.83;11.80;;;;;;;6.62;100.00;102023.59;5013803;28;20042;-76
2022/10/12 04:40:32;;;;;;;25.25;10.25;;;;;;;6.65;100.00;102029.19;5014972;28;20045;-74
2022/10/12 04:42:59;;;;;;;24.77;9.88;;;;;;;6.70;100.00;102031.75;5017164;28;20042;-76
2022/10/12 04:45:25;;;;;;;21.90;10.13;;;;;;;6.74;100.00;102037.34;5023293;28;20045;-74
2022/10/12 04:47:51;;;;;;;22.95;10.55;;;;;;;6.76;100.00;102040.59;5032944;28;20053;-76
2022/10/12 04:50:18;;;;;;;24.52;10.90;;;;;;;6.77;100.00;102032.00;5024713;28;20744;-76
2022/10/12 04:52:45;;;;;;;23.90;11.07;;;;;;;6.72;100.00;102039.66;5012283;28;20050;-77
2022/10/12 04:55:11;;;;;;;20.55;9.60;;;;;;;6.70;100.00;102036.44;5015872;28;20045;-75
2022/10/12 04:57:38;;;;;;;26.73;11.77;;;;;;;6.70;100.00;102030.94;5021968;28;20103;-75
2022/10/12 05:00:06;;;;;;;21.40;10.30;;;;;;;6.72;100.00;102023.94;5015698;28;20053;-76
2022/10/12 05:02:33;;;;;;;21.45;9.90;;;;;;;6.72;100.00;102034.16;5020822;28;20037;-76
2022/10/12 05:04:59;;;;;;;20.88;9.77;;;;;;;6.72;100.00;102034.16;5026783;28;20710;-76
2022/10/12 05:07:25;;;;;;;22.65;10.25;;;;;;;6.73;100.00;102036.56;5027489;28;20045;-77
2022/10/12 05:09:52;;;;;;;22.38;10.20;;;;;;;6.76;100.00;102026.81;5026098;28;20037;-76
2022/10/12 05:12:18;;;;;;;21.27;9.98;;;;;;;6.74;100.00;102037.34;5021182;28;20037;-76
2022/10/12 05:14:45;;;;;;;24.38;11.25;;;;;;;6.73;100.00;102025.56;5031917;28;20049;-76
2022/10/12 05:17:11;;;;;;;22.92;11.32;;;;;;;6.73;100.00;102017.31;5029210;28;20076;-75
2022/10/12 05:19:38;;;;;;;28.95;12.50;;;;;;;6.78;100.00;102011.59;5002128;28;20045;-75
2022/10/12 05:22:04;;;;;;;22.73;11.95;;;;;;;6.75;100.00;102014.22;5026691;28;20052;-76
2022/10/12 05:24:31;;;;;;;22.90;11.43;;;;;;;6.75;100.00;102015.00;5027743;28;20053;-75
2022/10/12 05:26:57;;;;;;;25.52;11.00;;;;;;;6.71;100.00;102010.53;5013659;28;20041;-77
2022/10/12 05:29:24;;;;;;;26.90;12.68;;;;;;;6.68;100.00;102011.22;5026128;28;20045;-74
2022/10/12 05:31:50;;;;;;;25.67;13.15;;;;;;;6.67;100.00;102012.34;5017419;28;20816;-78
2022/10/12 05:34:17;;;;;;;24.50;11.15;;;;;;;6.68;100.00;102014.75;5034863;28;20053;-78
2022/10/12 05:36:44;;;;;;;21.10;11.32;;;;;;;6.66;100.00;102010.75;5028025;28;20532;-75
2022/10/12 05:39:10;;;;;;;21.65;10.95;;;;;;;6.65;100.00;102011.91;5010998;28;20457;-77
2022/10/12 05:41:37;;;;;;;24.95;10.90;;;;;;;6.62;100.00;102012.59;5005502;28;20494;-75
2022/10/12 05:44:03;;;;;;;26.50;10.73;;;;;;;6.62;100.00;102018.88;5023539;28;20045;-77
2022/10/12 05:46:30;;;;;;;21.42;10.02;;;;;;;6.64;100.00;102027.59;5030232;28;20590;-77
2022/10/12 05:48:56;;;;;;;21.50;11.25;;;;;;;6.57;100.00;102021.84;5048443;28;20049;-77
2022/10/12 05:51:22;;;;;;;19.48;10.15;;;;;;;6.57;100.00;102040.28;5045423;28;20502;-77
2022/10/12 05:53:54;;;;;;;27.63;10.68;;;;;;;6.56;100.00;102041.44;5028374;28;20123;-76
2022/10/12 05:56:20;;;;;;;25.48;11.68;;;;;;;6.56;100.00;102041.44;5023025;28;20055;-76
2022/10/12 05:58:47;;;;;;;22.70;11.05;;;;;;;6.54;100.00;102036.25;5017629;28;20042;-75
2022/10/12 06:01:13;;;;;;;23.50;10.07;;;;;;;6.55;100.00;102046.13;5015922;28;20041;-76
2022/10/12 06:03:40;;;;;;;27.20;10.80;;;;;;;6.54;100.00;102046.44;5017928;28;20053;-77
2022/10/12 06:06:06;;;;;;;21.95;10.35;;;;;;;6.51;100.00;102041.66;5024116;28;20045;-75
2022/10/12 06:08:33;;;;;;;27.92;10.85;;;;;;;6.50;100.00;102049.09;5017942;28;20050;-75
2022/10/12 06:11:00;;;;;;;28.60;13.00;;;;;;;6.49;100.00;102052.19;5011864;28;20064;-77
2022/10/12 06:13:27;;;;;;;24.73;10.93;;;;;;;6.42;100.00;102044.47;5026796;28;20940;-78
2022/10/12 06:15:53;;;;;;;21.50;10.43;;;;;;;6.44;100.00;102049.63;5033349;28;20045;-75
2022/10/12 06:18:21;;;;;;;26.08;11.18;;;;;;;6.41;100.00;102051.09;5004561;28;20045;-75
2022/10/12 06:20:50;;;;;;;25.25;11.55;;;;;;;6.46;100.00;102050.91;5025640;28;20053;-75
2022/10/12 06:23:34;;;;;;;26.48;11.13;;;;;;;6.48;100.00;102045.06;5018389;28;20044;-75
2022/10/12 06:26:01;;;;;;;20.70;10.98;;;;;;;6.46;100.00;102042.66;5023155;28;20079;-76
2022/10/12 06:28:27;;;;;;;35.80;13.35;;;;;;;6.44;100.00;102041.38;5015389;28;20060;-77
2022/10/12 06:30:56;;;;;;;19.60;9.98;;;;;;;6.47;100.00;102044.25;5022509;28;20405;-77
2022/10/12 06:33:23;;;;;;;26.63;11.95;;;;;;;6.47;100.00;102043.44;5019086;28;20059;-76
2022/10/12 06:35:50;;;;;;;23.77;11.15;;;;;;;6.44;100.00;102033.13;4993917;28;20060;-75
2022/10/12 06:38:17;;;;;;;24.48;11.50;;;;;;;6.45;100.00;102035.53;5024044;28;20350;-74
2022/10/12 06:40:44;;;;;;;29.73;13.70;;;;;;;6.50;100.00;102043.59;5025814;28;20045;-76
2022/10/12 06:43:10;;;;;;;33.67;20.38;;;;;;;6.50;100.00;102031.78;5028050;28;20488;-73
2022/10/12 06:45:37;;;;;;;28.92;15.75;;;;;;;6.53;100.00;102042.09;5031245;28;20045;-73
2022/10/12 06:48:04;;;;;;;28.25;15.73;;;;;;;6.54;100.00;102046.44;5031453;28;20052;-74
2022/10/12 06:50:30;;;;;;;26.48;13.65;;;;;;;6.53;100.00;102044.84;5021303;28;20063;-73
2022/10/12 06:52:57;;;;;;;29.17;13.77;;;;;;;6.58;100.00;102050.94;5016328;28;20088;-76
2022/10/12 06:55:23;;;;;;;32.00;12.88;;;;;;;6.62;100.00;102051.09;5009167;28;20111;-74
2022/10/12 06:57:50;;;;;;;29.08;13.85;;;;;;;6.65;100.00;102047.66;5029474;28;20138;-73
2022/10/12 07:00:16;;;;;;;27.55;13.55;;;;;;;6.67;100.00;102042.59;5025349;28;20052;-74
2022/10/12 07:02:43;;;;;;;24.30;12.27;;;;;;;6.71;100.00;102038.03;5028670;28;20041;-73
2022/10/12 07:05:09;;;;;;;24.20;12.75;;;;;;;6.73;100.00;102030.25;5030448;28;20391;-74
2022/10/12 07:07:36;;;;;;;22.85;11.80;;;;;;;6.77;100.00;102028.44;5035231;28;20052;-74
2022/10/12 07:10:04;;;;;;;31.58;13.55;;;;;;;6.82;100.00;102029.00;5030780;28;20045;-74
2022/10/12 07:12:30;;;;;;;34.00;13.93;;;;;;;6.85;100.00;102016.53;5021460;28;20664;-75
2022/10/12 07:14:58;;;;;;;26.30;14.45;;;;;;;6.91;100.00;102026.16;5027680;28;20041;-76
2022/10/12 07:17:24;;;;;;;23.75;12.80;;;;;;;6.92;100.00;102019.53;5022985;28;20390;-75
2022/10/12 07:19:51;;;;;;;25.98;13.68;;;;;;;7.00;100.00;102026.88;5014567;28;20136;-75
2022/10/12 07:22:17;;;;;;;29.00;14.50;;;;;;;7.05;100.00;102021.13;5029504;28;20044;-75
2022/10/12 07:24:43;;;;;;;29.35;14.75;;;;;;;7.15;100.00;102024.25;5013669;28;20057;-75
2022/10/12 07:27:10;;;;;;;35.15;13.88;;;;;;;7.20;100.00;102017.72;5019572;28;20061;-75
2022/10/12 07:29:38;;;;;;;28.67;15.00;;;;;;;7.35;100.00;102028.03;5020767;28;20045;-75
2022/10/12 07:32:06;;;;;;;28.00;14.52;;;;;;;7.43;100.00;102022.41;5023598;28;20053;-75
2022/10/12 07:34:33;;;;;;;33.10;15.60;;;;;;;7.54;100.00;102022.78;5023410;28;20506;-75
2022/10/12 07:37:00;;;;;;;28.90;13.95;;;;;;;7.66;100.00;102028.25;5022671;28;20042;-75
2022/10/12 07:39:27;;;;;;;29.60;15.20;;;;;;;7.75;100.00;102017.94;5025850;28;20053;-77
2022/10/12 07:41:53;;;;;;;28.65;14.52;;;;;;;7.87;100.00;102015.16;5020201;28;20053;-76
2022/10/12 07:44:21;;;;;;;28.95;13.52;;;;;;;8.10;100.00;102027.25;5014772;28;20049;-75
2022/10/12 07:46:48;;;;;;;28.67;13.80;;;;;;;8.26;100.00;102017.13;5025460;28;20060;-75
2022/10/12 07:49:15;;;;;;;29.90;14.73;;;;;;;8.46;100.00;102020.84;5022776;28;20108;-75
2022/10/12 07:51:42;;;;;;;26.92;14.02;;;;;;;8.65;100.00;102023.75;5013645;28;20053;-74
2022/10/12 07:54:09;;;;;;;32.30;13.65;;;;;;;8.85;100.00;102019.94;5029833;28;20107;-76
2022/10/12 07:56:35;;;;;;;30.98;13.75;;;;;;;9.04;100.00;102017.31;5021332;28;20081;-73
2022/10/12 07:59:02;;;;;;;30.15;14.23;;;;;;;9.25;100.00;102017.84;5027703;28;20046;-73
2022/10/12 08:01:30;;;;;;;28.70;12.85;;;;;;;9.45;100.00;102016.75;5020554;28;20045;-75
2022/10/12 08:03:57;;;;;;;26.83;12.63;;;;;;;9.64;100.00;102017.63;5021923;28;22339;-76
2022/10/12 08:06:29;;;;;;;24.60;12.27;;;;;;;9.85;100.00;102025.56;5020882;28;20541;-75
2022/10/12 08:08:57;;;;;;;28.65;13.50;;;;;;;10.03;100.00;102019.28;5029918;28;20052;-75
2022/10/12 08:11:23;;;;;;;27.85;12.80;;;;;;;10.21;100.00;102019.69;5025537;28;20049;-74
2022/10/12 08:13:50;;;;;;;27.75;12.30;;;;;;;10.34;100.00;102012.84;5016079;28;20062;-75
2022/10/12 08:16:19;;;;;;;25.08;11.38;;;;;;;10.52;100.00;102019.53;5009617;28;20053;-76
2022/10/12 08:18:46;;;;;;;23.98;10.75;;;;;;;10.68;100.00;102020.25;5024731;28;20151;-74
2022/10/12 08:21:14;;;;;;;27.50;11.77;;;;;;;10.84;100.00;102026.50;5025526;28;21319;-74
2022/10/12 08:23:43;;;;;;;36.28;13.15;;;;;;;10.99;100.00;102027.53;5027720;28;20115;-74
2022/10/12 08:26:11;;;;;;;25.33;10.70;;;;;;;11.09;100.00;102015.84;5020240;28;20434;-74
2022/10/12 08:28:37;;;;;;;28.75;10.55;;;;;;;11.21;100.00;102019.25;5031631;28;20045;-77
2022/10/12 08:31:10;;;;;;;23.42;10.02;;;;;;;11.36;100.00;102012.75;5016830;28;20057;-78
2022/10/12 08:33:37;;;;;;;30.63;10.38;;;;;;;11.44;100.00;102011.69;5032464;28;21019;-78
2022/10/12 08:36:05;;;;;;;26.17;10.48;;;;;;;11.58;100.00;102019.44;5010902;28;20068;-75
2022/10/12 08:38:33;;;;;;;22.48;10.02;;;;;;;11.71;100.00;102021.66;5015021;28;20050;-75
2022/10/12 08:41:20;;;;;;;23.95;9.48;;;;;;;11.82;100.00;102016.25;5021932;28;20096;-75
2022/10/12 08:44:07;;;;;;;19.60;8.98;;;;;;;11.89;100.00;102010.81;5024005;28;20416;-75
2022/10/12 08:46:34;;;;;;;23.95;8.82;;;;;;;11.92;100.00;102005.31;5014669;28;20927;-73
2022/10/12 08:49:04;;;;;;;21.67;8.57;;;;;;;12.05;100.00;102012.22;5003993;28;20052;-74
2022/10/12 08:51:39;;;;;;;24.48;9.23;;;;;;;12.18;100.00;102008.03;4998543;28;20771;-75
2022/10/12 08:54:10;;;;;;;24.95;8.00;;;;;;;12.36;100.00;102008.25;4999597;28;20057;-76
2022/10/12 08:56:39;;;;;;;22.13;8.93;;;;;;;12.54;100.00;102001.75;4998603;28;20064;-75
2022/10/12 08:59:12;;;;;;;23.02;7.90;;;;;;;12.70;100.00;102001.50;5001797;28;20057;-74
2022/10/12 09:01:56;;;;;;;25.08;9.15;;;;;;;12.86;100.00;102002.88;4998959;28;20053;-75
2022/10/12 09:04:49;;;;;;;19.48;6.22;;;;;;;12.99;100.00;102000.63;5000851;28;20057;-76
2022/10/12 09:07:25;;;;;;;20.95;6.22;;;;;;;13.07;100.00;101993.16;4981794;28;20060;-76
2022/10/12 09:10:13;;;;;;;22.02;6.55;;;;;;;13.32;100.00;102010.84;4978808;28;20817;-75
2022/10/12 09:12:54;;;;;;;21.85;6.40;;;;;;;13.50;100.00;102001.44;4996403;28;20049;-76
2022/10/12 09:15:25;;;;;;;22.55;5.80;;;;;;;13.63;100.00;101999.97;4997458;28;20057;-76
2022/10/12 09:17:54;;;;;;;15.57;5.22;;;;;;;13.82;100.00;102007.25;4999540;28;20060;-75
2022/10/12 09:20:20;;;;;;;16.33;5.35;;;;;;;14.02;100.00;102008.53;5000697;28;20061;-76
2022/10/12 09:22:57;;;;;;;13.80;4.63;;;;;;;14.23;100.00;102008.69;5002048;28;20409;-73
2022/10/12 09:25:26;;;;;;;12.63;4.78;;;;;;;14.53;100.00;102006.41;5003384;28;20481;-72
2022/10/12 09:27:56;;;;;;;15.98;4.80;;;;;;;14.78;100.00;102010.84;5001100;28;20053;-76
2022/10/12 09:30:23;;;;;;;15.43;3.67;;;;;;;15.01;99.44;102013.28;4981684;28;20444;-75
2022/10/12 09:33:08;;;;;;;15.48;3.88;;;;;;;15.19;95.68;102017.69;5002398;28;20041;-76
2022/10/12 09:35:35;;;;;;;16.20;3.50;;;;;;;15.40;94.92;102005.78;5016349;28;20049;-77
2022/10/12 09:38:02;;;;;;;12.05;3.85;;;;;;;15.47;92.88;102014.13;5011377;28;20057;-76
2022/10/12 09:40:31;;;;;;;10.75;3.55;;;;;;;15.52;92.90;102003.38;4993099;28;20489;-75
2022/10/12 09:43:00;;;;;;;17.23;4.00;;;;;;;15.65;92.59;102011.34;5014833;28;20045;-76
2022/10/12 09:45:31;;;;;;;14.80;4.38;;;;;;;15.80;91.85;102010.09;5002709;28;20048;-75
2022/10/12 09:48:30;;;;;;;13.48;4.13;;;;;;;15.86;87.14;101988.97;5000621;28;20046;-77
2022/10/12 09:50:59;;;;;;;16.02;5.25;;;;;;;16.04;87.56;102001.66;4993262;28;20072;-75
2022/10/12 09:53:26;;;;;;;18.35;4.55;;;;;;;16.15;84.84;101996.03;5001043;28;20058;-74
2022/10/12 09:55:57;;;;;;;17.75;4.50;;;;;;;16.31;85.82;102010.34;5004682;28;20053;-75
2022/10/12 09:58:25;;;;;;;12.07;3.70;;;;;;;16.24;80.97;102000.00;5010042;28;20053;-76
2022/10/12 10:01:32;;;;;;;14.88;4.07;;;;;;;16.18;75.54;102003.59;4984049;28;20056;-76
2022/10/12 10:04:30;;;;;;;18.40;4.30;;;;;;;16.18;75.26;101995.22;4894579;28;20189;-77
2022/10/12 10:07:17;;;;;;;14.80;3.65;;;;;;;16.51;79.47;102003.09;4912475;28;20055;-77
2022/10/12 10:09:44;;;;;;;18.85;4.13;;;;;;;16.71;81.20;101999.38;4921157;28;20099;-76
2022/10/12 10:12:28;;;;;;;17.83;6.50;;;;;;;16.65;78.40;101997.44;4919783;28;20051;-77
2022/10/12 10:14:56;;;;;;;12.93;3.40;;;;;;;16.70;77.48;101994.19;4922101;28;20063;-76
2022/10/12 10:17:26;;;;;;;10.40;3.10;;;;;;;16.74;77.03;101995.75;4923009;28;20981;-77
2022/10/12 10:19:55;;;;;;;13.00;3.60;;;;;;;16.71;76.16;101988.19;4924411;28;20070;-76
2022/10/12 10:22:23;;;;;;;13.10;3.35;;;;;;;16.92;77.20;101988.06;4928313;28;21356;-78
2022/10/12 10:24:52;;;;;;;13.13;4.18;;;;;;;17.10;76.28;101985.94;4936211;28;20099;-79
2022/10/12 10:27:33;;;;;;;11.93;3.72;;;;;;;17.04;68.22;101984.78;4931064;28;20058;-76
2022/10/12 10:30:14;;;;;;;15.02;3.55;;;;;;;17.18;71.30;101992.28;4930520;28;20059;-80
2022/10/12 10:33:14;;;;;;;17.83;3.50;;;;;;;17.42;71.64;101974.50;4935151;28;20047;-79
2022/10/12 10:35:53;;;;;;;10.57;3.30;;;;;;;17.51;69.77;101986.81;4998201;28;20084;-75
2022/10/12 10:38:19;;;;;;;13.38;3.90;;;;;;;17.73;71.50;101970.59;5012435;28;20060;-76
2022/10/12 10:40:51;;;;;;;16.20;3.78;;;;;;;18.17;68.70;101990.09;5011636;28;20127;-78
2022/10/12 10:43:26;;;;;;;16.52;3.67;;;;;;;18.10;58.33;101989.38;5010630;28;20128;-77
2022/10/12 10:46:02;;;;;;;6.28;2.22;;;;;;;18.07;57.23;101979.81;5010208;28;20060;-76
2022/10/12 10:48:33;;;;;;;14.52;3.30;;;;;;;18.11;57.96;101977.75;5007167;28;20476;-77
2022/10/12 10:51:03;;;;;;;13.10;3.70;;;;;;;18.37;58.29;101968.66;4991015;28;20902;-77
2022/10/12 10:53:43;;;;;;;13.80;3.75;;;;;;;18.38;58.69;101966.63;4992299;28;20053;-77
2022/10/12 10:56:15;;;;;;;8.82;3.60;;;;;;;18.49;56.59;101970.09;5006182;28;20512;-76
2022/10/12 10:58:45;;;;;;;15.23;3.90;;;;;;;18.50;58.75;101966.88;5009174;28;20706;-78
2022/10/12 11:01:27;;;;;;;15.13;4.10;;;;;;;18.90;57.63;101965.84;5018815;28;20041;-78
2022/10/12 11:04:00;;;;;;;17.13;4.18;;;;;;;19.48;56.88;101964.53;5000860;28;20134;-75
2022/10/12 11:06:42;;;;;;;15.45;4.00;;;;;;;19.50;54.55;101960.06;5013137;28;20053;-77
2022/10/12 11:09:14;;;;;;;10.57;3.03;;;;;;;19.65;54.40;101949.38;5010389;28;20531;-76
2022/10/12 11:11:44;;;;;;;14.23;3.53;;;;;;;19.67;51.87;101944.91;5012440;28;20060;-77
2022/10/12 11:14:15;;;;;;;2.78;1.38;;;;;;;19.00;50.17;101953.69;5011699;28;20121;-78
2022/10/12 11:16:54;;;;;;;13.10;2.40;;;;;;;19.08;52.47;101949.56;5015476;28;20049;-78
2022/10/12 11:19:28;;;;;;;5.78;1.92;;;;;;;19.13;50.70;101951.09;5006343;28;20053;-78
2022/10/12 11:22:05;;;;;;;12.63;2.95;;;;;;;19.39;53.02;101956.66;5008297;28;20433;-78
2022/10/12 11:24:43;;;;;;;10.20;2.13;;;;;;;19.51;49.91;101955.25;5005163;28;20057;-77
2022/10/12 11:27:21;;;;;;;7.85;2.10;;;;;;;19.22;50.26;101951.31;5019078;28;20062;-78